createdAt,value
2022-09-30T00:00:08.341Z,99.99
2022-09-30T00:03:16.266Z,99.99
2022-09-30T00:06:24.391Z,99.99
2022-09-30T00:09:31.777Z,99.99
2022-09-30T00:12:40.052Z,99.99
2022-09-30T00:15:48.395Z,99.99
2022-09-30T00:18:55.762Z,99.82
2022-09-30T00:22:03.664Z,99.40
2022-09-30T00:25:11.505Z,98.83
2022-09-30T00:28:19.281Z,98.52
2022-09-30T00:31:27.480Z,98.72
2022-09-30T00:34:34.876Z,98.72
2022-09-30T00:37:42.591Z,98.72
2022-09-30T00:40:50.396Z,98.83
2022-09-30T00:43:58.064Z,99.14
2022-09-30T00:47:05.716Z,99.44
2022-09-30T00:50:13.856Z,99.44
2022-09-30T00:53:23.497Z,99.60
2022-09-30T00:56:31.320Z,99.86
2022-09-30T00:59:39.170Z,99.96
2022-09-30T01:02:47.381Z,99.99
2022-09-30T01:05:54.763Z,99.99
2022-09-30T01:09:03.160Z,99.99
2022-09-30T01:12:10.488Z,99.99
2022-09-30T01:15:18.731Z,99.99
2022-09-30T01:18:26.651Z,99.99
2022-09-30T01:21:34.642Z,99.91
2022-09-30T01:24:42.552Z,99.91
2022-09-30T01:27:50.635Z,99.99
2022-09-30T01:30:58.073Z,99.91
2022-09-30T01:34:06.264Z,99.91
2022-09-30T01:37:13.574Z,99.95
2022-09-30T01:40:21.974Z,99.95
2022-09-30T01:43:29.796Z,99.99
2022-09-30T01:46:37.591Z,99.99
2022-09-30T01:49:45.436Z,99.99
2022-09-30T01:52:53.486Z,99.99
2022-09-30T01:56:00.807Z,99.95
2022-09-30T01:59:08.973Z,99.85
2022-09-30T02:02:16.472Z,99.64
2022-09-30T02:05:24.726Z,99.33
2022-09-30T02:08:32.681Z,99.33
2022-09-30T02:11:40.502Z,99.74
2022-09-30T02:14:48.363Z,99.99
2022-09-30T02:17:56.631Z,99.99
2022-09-30T02:21:04.057Z,99.99
2022-09-30T02:24:12.290Z,99.95
2022-09-30T02:27:19.642Z,99.74
2022-09-30T02:30:27.912Z,99.64
2022-09-30T02:33:35.343Z,99.90
2022-09-30T02:36:43.113Z,99.99
2022-09-30T02:39:50.946Z,99.90
2022-09-30T02:42:59.191Z,99.79
2022-09-30T02:46:06.525Z,99.69
2022-09-30T02:49:15.005Z,99.63
2022-09-30T02:52:22.223Z,99.43
2022-09-30T02:55:30.196Z,99.32
2022-09-30T02:58:38.056Z,99.37
2022-09-30T03:01:45.918Z,99.26
2022-09-30T03:04:53.597Z,99.37
2022-09-30T03:08:02.230Z,99.16
2022-09-30T03:11:09.570Z,99.37
2022-09-30T03:14:17.677Z,99.26
2022-09-30T03:17:25.065Z,99.26
2022-09-30T03:20:33.289Z,99.16
2022-09-30T03:23:41.059Z,99.31
2022-09-30T03:26:48.899Z,99.52
2022-09-30T03:29:56.760Z,99.78
2022-09-30T03:33:04.846Z,99.99
2022-09-30T03:36:12.269Z,99.99
2022-09-30T03:39:20.533Z,99.99
2022-09-30T03:42:27.901Z,99.99
2022-09-30T03:45:36.124Z,99.99
2022-09-30T03:48:43.960Z,99.99
2022-09-30T03:51:51.594Z,99.78
2022-09-30T03:54:59.470Z,99.52
2022-09-30T03:58:07.922Z,99.41
2022-09-30T04:01:15.275Z,99.31
2022-09-30T04:04:23.527Z,99.52
2022-09-30T04:07:30.839Z,99.52
2022-09-30T04:10:39.193Z,99.31
2022-09-30T04:13:46.955Z,99.46
2022-09-30T04:16:55.007Z,99.35
2022-09-30T04:20:02.667Z,99.46
2022-09-30T04:23:10.487Z,99.56
2022-09-30T04:26:18.150Z,99.98
2022-09-30T04:29:26.416Z,99.99
2022-09-30T04:32:33.818Z,99.77
2022-09-30T04:35:42.408Z,99.87
2022-09-30T04:38:50.279Z,99.66
2022-09-30T04:41:58.159Z,99.87
2022-09-30T04:45:06.043Z,99.99
2022-09-30T04:48:13.910Z,99.99
2022-09-30T04:51:21.667Z,99.99
2022-09-30T04:54:29.952Z,99.98
2022-09-30T04:57:37.391Z,99.99
2022-09-30T05:00:45.784Z,99.77
2022-09-30T05:03:53.536Z,99.87
2022-09-30T05:07:01.302Z,99.66
2022-09-30T05:10:09.077Z,99.56
2022-09-30T05:13:16.745Z,99.25
2022-09-30T05:16:24.785Z,99.25
2022-09-30T05:19:33.345Z,99.35
2022-09-30T05:22:40.644Z,99.35
2022-09-30T05:25:48.776Z,99.46
2022-09-30T05:28:56.356Z,99.56
2022-09-30T05:32:04.143Z,99.66
2022-09-30T05:35:11.813Z,99.98
2022-09-30T05:38:19.598Z,99.99
2022-09-30T05:41:27.417Z,99.99
2022-09-30T05:44:35.467Z,99.99
2022-09-30T05:47:42.903Z,99.99
2022-09-30T05:50:51.215Z,99.99
2022-09-30T05:53:59.168Z,99.99
2022-09-30T05:57:06.998Z,99.99
2022-09-30T06:00:14.929Z,99.99
2022-09-30T06:03:22.850Z,99.99
2022-09-30T06:06:30.836Z,99.99
2022-09-30T06:09:39.332Z,99.99
2022-09-30T06:12:47.015Z,99.99
2022-09-30T06:15:55.502Z,99.99
2022-09-30T06:19:03.511Z,99.99
2022-09-30T06:22:11.523Z,99.99
2022-09-30T06:25:19.602Z,99.99
2022-09-30T06:28:27.770Z,99.99
2022-09-30T06:31:36.117Z,99.99
2022-09-30T06:34:44.382Z,99.99
2022-09-30T06:37:51.945Z,99.99
2022-09-30T06:41:00.635Z,99.99
2022-09-30T06:44:09.370Z,99.99
2022-09-30T06:47:24.858Z,99.99
2022-09-30T06:50:25.772Z,99.99
2022-09-30T06:53:23.170Z,99.99
2022-09-30T06:56:31.097Z,99.99
2022-09-30T06:59:39.514Z,99.78
2022-09-30T07:02:46.945Z,99.78
2022-09-30T07:05:55.542Z,99.43
2022-09-30T07:09:03.081Z,99.11
2022-09-30T07:12:11.229Z,98.86
2022-09-30T07:15:19.091Z,98.66
2022-09-30T07:18:26.831Z,98.45
2022-09-30T07:21:34.502Z,97.99
2022-09-30T07:24:43.142Z,97.64
2022-09-30T07:27:50.441Z,97.43
2022-09-30T07:31:19.846Z,97.18
2022-09-30T07:34:03.265Z,97.18
2022-09-30T07:37:11.602Z,96.93
2022-09-30T07:40:19.527Z,96.47
2022-09-30T07:43:27.385Z,96.06
2022-09-30T07:46:35.325Z,95.61
2022-09-30T07:49:43.756Z,95.81
2022-09-30T07:52:51.106Z,95.56
2022-09-30T07:55:59.388Z,95.77
2022-09-30T07:59:06.836Z,95.52
2022-09-30T08:02:15.257Z,95.52
2022-09-30T08:05:23.125Z,94.96
2022-09-30T08:08:30.929Z,95.06
2022-09-30T08:11:38.640Z,94.92
2022-09-30T08:14:46.581Z,94.81
2022-09-30T08:17:54.051Z,94.56
2022-09-30T08:21:02.422Z,94.15
2022-09-30T08:24:09.812Z,93.54
2022-09-30T08:27:18.038Z,93.29
2022-09-30T08:30:26.273Z,92.83
2022-09-30T08:33:34.371Z,93.51
2022-09-30T08:36:42.445Z,92.18
2022-09-30T08:39:50.967Z,92.14
2022-09-30T08:42:58.639Z,91.63
2022-09-30T08:46:07.783Z,91.69
2022-09-30T08:49:15.337Z,92.19
2022-09-30T08:52:30.454Z,91.74
2022-09-30T08:55:28.887Z,92.36
2022-09-30T08:58:37.261Z,91.39
2022-09-30T09:01:45.131Z,91.09
2022-09-30T09:04:53.305Z,91.05
2022-09-30T09:08:01.110Z,91.35
2022-09-30T09:11:09.678Z,88.59
2022-09-30T09:14:17.535Z,89.78
2022-09-30T09:17:25.589Z,88.85
2022-09-30T09:20:33.915Z,88.00
2022-09-30T09:23:41.205Z,85.92
2022-09-30T09:26:49.437Z,86.59
2022-09-30T09:29:57.717Z,88.12
2022-09-30T09:33:05.007Z,86.29
2022-09-30T09:36:13.078Z,85.13
2022-09-30T09:39:20.903Z,83.80
2022-09-30T09:42:28.672Z,83.59
2022-09-30T09:45:36.896Z,84.27
2022-09-30T09:48:44.556Z,86.51
2022-09-30T09:51:52.071Z,84.74
2022-09-30T09:55:00.253Z,82.50
2022-09-30T09:58:08.154Z,80.93
2022-09-30T10:01:15.960Z,80.73
2022-09-30T10:04:23.773Z,82.42
2022-09-30T10:07:32.056Z,78.86
2022-09-30T10:10:39.826Z,77.23
2022-09-30T10:13:47.666Z,79.98
2022-09-30T10:16:55.587Z,79.33
2022-09-30T10:20:02.979Z,79.23
2022-09-30T10:23:11.230Z,76.45
2022-09-30T10:26:19.096Z,75.90
2022-09-30T10:29:26.620Z,77.90
2022-09-30T10:32:34.792Z,75.97
2022-09-30T10:35:42.652Z,74.68
2022-09-30T10:38:50.113Z,74.07
2022-09-30T10:41:58.274Z,75.36
2022-09-30T10:45:05.975Z,74.58
2022-09-30T10:48:13.821Z,69.27
2022-09-30T10:51:22.144Z,71.57
2022-09-30T10:54:29.737Z,69.27
2022-09-30T10:57:37.537Z,66.13
2022-09-30T11:00:45.802Z,68.02
2022-09-30T11:03:53.783Z,64.99
2022-09-30T11:07:01.546Z,69.81
2022-09-30T11:10:09.201Z,69.92
2022-09-30T11:13:16.998Z,69.78
2022-09-30T11:16:25.155Z,70.79
2022-09-30T11:19:33.038Z,69.07
2022-09-30T11:22:40.895Z,69.55
2022-09-30T11:25:48.726Z,63.78
2022-09-30T11:28:56.435Z,65.64
2022-09-30T11:32:04.725Z,67.69
2022-09-30T11:35:12.170Z,67.29
2022-09-30T11:38:20.336Z,66.58
2022-09-30T11:41:28.034Z,64.96
2022-09-30T11:44:35.603Z,66.67
2022-09-30T11:47:43.743Z,64.65
2022-09-30T11:50:51.982Z,65.16
2022-09-30T11:53:59.484Z,65.50
2022-09-30T11:57:07.873Z,66.50
2022-09-30T12:00:15.930Z,63.44
2022-09-30T12:03:23.314Z,65.94
2022-09-30T12:06:31.699Z,67.83
2022-09-30T12:09:39.758Z,65.20
2022-09-30T12:12:47.549Z,63.58
2022-09-30T12:15:55.710Z,63.65
2022-09-30T12:19:03.471Z,64.13
2022-09-30T12:22:11.224Z,65.21
2022-09-30T12:25:18.808Z,63.70
2022-09-30T12:28:27.113Z,63.15
2022-09-30T12:31:34.979Z,62.54
2022-09-30T12:34:42.595Z,63.35
2022-09-30T12:37:50.766Z,60.82
2022-09-30T12:40:58.666Z,61.03
2022-09-30T12:44:06.408Z,60.45
2022-09-30T12:47:14.480Z,62.16
2022-09-30T12:50:21.852Z,60.42
2022-09-30T12:53:30.204Z,62.62
2022-09-30T12:56:38.502Z,59.78
2022-09-30T12:59:45.784Z,60.69
2022-09-30T13:02:54.104Z,57.67
2022-09-30T13:06:02.145Z,60.42
2022-09-30T13:09:09.635Z,57.69
2022-09-30T13:12:17.375Z,56.91
2022-09-30T13:15:25.118Z,58.43
2022-09-30T13:18:32.859Z,55.90
2022-09-30T13:21:40.750Z,58.80
2022-09-30T13:24:48.588Z,58.33
2022-09-30T13:27:56.413Z,60.82
2022-09-30T13:31:04.404Z,58.93
2022-09-30T13:34:12.176Z,57.82
2022-09-30T13:37:20.187Z,58.05
2022-09-30T13:40:49.893Z,59.36
2022-09-30T13:43:33.248Z,58.45
2022-09-30T13:46:41.125Z,60.07
2022-09-30T13:49:48.957Z,59.59
2022-09-30T13:52:57.079Z,59.29
2022-09-30T13:56:04.979Z,62.53
2022-09-30T13:59:12.603Z,61.21
2022-09-30T14:02:22.444Z,61.82
2022-09-30T14:05:30.059Z,59.39
2022-09-30T14:08:38.145Z,58.86
2022-09-30T14:11:46.277Z,57.54
2022-09-30T14:14:53.656Z,59.47
2022-09-30T14:18:04.442Z,59.77
2022-09-30T14:21:02.908Z,58.36
2022-09-30T14:24:10.318Z,58.76
2022-09-30T14:27:18.432Z,56.94
2022-09-30T14:30:26.560Z,56.53
2022-09-30T14:33:33.973Z,58.05
2022-09-30T14:37:31.405Z,57.34
2022-09-30T14:40:39.652Z,57.85
2022-09-30T14:43:48.121Z,58.45
2022-09-30T14:46:55.709Z,58.15
2022-09-30T14:50:03.275Z,58.25
2022-09-30T14:53:11.265Z,57.54
2022-09-30T14:56:19.120Z,58.25
2022-09-30T14:59:26.818Z,58.18
2022-09-30T15:02:35.108Z,59.09
2022-09-30T15:05:42.809Z,60.58
2022-09-30T15:08:50.629Z,60.68
2022-09-30T15:11:58.850Z,61.19
2022-09-30T15:15:06.468Z,61.08
2022-09-30T15:18:14.643Z,60.58
2022-09-30T15:21:22.481Z,61.29
2022-09-30T15:24:30.303Z,60.30
2022-09-30T15:27:38.123Z,61.21
2022-09-30T15:30:45.431Z,62.26
2022-09-30T15:33:53.136Z,62.05
2022-09-30T15:37:00.885Z,63.37
2022-09-30T15:40:08.190Z,63.27
2022-09-30T15:43:16.422Z,62.59
2022-09-30T15:46:24.225Z,63.60
2022-09-30T15:49:31.578Z,64.14
2022-09-30T15:52:39.351Z,64.14
2022-09-30T15:55:47.320Z,63.96
2022-09-30T15:58:55.113Z,63.79
2022-09-30T16:02:03.161Z,64.81
2022-09-30T16:05:11.345Z,64.30
2022-09-30T16:08:19.151Z,65.24
2022-09-30T16:11:26.937Z,67.07
2022-09-30T16:14:34.559Z,66.08
2022-09-30T16:17:42.299Z,66.39
2022-09-30T16:20:49.990Z,66.90
2022-09-30T16:23:58.180Z,67.44
2022-09-30T16:27:05.990Z,67.57
2022-09-30T16:30:13.626Z,66.96
2022-09-30T16:33:21.880Z,68.41
2022-09-30T16:36:29.526Z,70.35
2022-09-30T16:39:37.825Z,68.96
2022-09-30T16:42:45.753Z,70.31
2022-09-30T16:45:53.258Z,70.01
2022-09-30T16:49:01.576Z,68.92
2022-09-30T16:52:09.968Z,77.10
2022-09-30T16:55:17.532Z,78.56
2022-09-30T16:58:25.643Z,79.62
2022-09-30T17:01:33.889Z,80.37
2022-09-30T17:04:41.613Z,81.23
2022-09-30T17:07:49.412Z,81.67
2022-09-30T17:10:57.380Z,81.81
2022-09-30T17:14:05.123Z,81.91
2022-09-30T17:17:13.929Z,81.95
2022-09-30T17:20:22.286Z,82.87
2022-09-30T17:23:29.655Z,83.89
2022-09-30T17:26:37.897Z,83.52
2022-09-30T17:29:45.541Z,84.55
2022-09-30T17:32:53.468Z,85.06
2022-09-30T17:36:01.239Z,84.55
2022-09-30T17:39:09.044Z,84.58
2022-09-30T17:42:16.680Z,84.17
2022-09-30T17:45:24.943Z,84.28
2022-09-30T17:48:33.108Z,83.66
2022-09-30T17:51:40.844Z,84.28
2022-09-30T17:54:52.198Z,84.63
2022-09-30T17:57:49.393Z,84.63
2022-09-30T18:00:57.165Z,87.02
2022-09-30T18:04:05.274Z,87.53
2022-09-30T18:07:13.105Z,88.29
2022-09-30T18:10:20.926Z,88.18
2022-09-30T18:13:29.096Z,87.67
2022-09-30T18:16:36.740Z,87.37
2022-09-30T18:19:45.217Z,86.44
2022-09-30T18:22:53.373Z,85.52
2022-09-30T18:26:00.790Z,85.63
2022-09-30T18:29:08.920Z,85.01
2022-09-30T18:32:17.131Z,85.22
2022-09-30T18:35:24.593Z,84.91
2022-09-30T18:38:32.870Z,84.80
2022-09-30T18:41:45.338Z,85.31
2022-09-30T18:44:42.651Z,85.63
2022-09-30T18:47:50.477Z,86.44
2022-09-30T18:50:58.586Z,86.07
2022-09-30T18:54:07.436Z,85.25
2022-09-30T18:57:15.877Z,85.46
2022-09-30T19:00:23.697Z,84.23
2022-09-30T19:03:31.520Z,83.41
2022-09-30T19:06:39.869Z,83.41
2022-09-30T19:09:47.589Z,82.79
2022-09-30T19:12:55.068Z,82.90
2022-09-30T19:16:02.725Z,82.59
2022-09-30T19:19:10.663Z,82.79
2022-09-30T19:22:18.606Z,81.98
2022-09-30T19:25:26.623Z,82.08
2022-09-30T19:28:34.863Z,82.59
2022-09-30T19:31:42.866Z,82.49
2022-09-30T19:35:00.947Z,82.18
2022-09-30T19:38:02.675Z,82.28
2022-09-30T19:40:59.627Z,81.77
2022-09-30T19:44:07.725Z,81.77
2022-09-30T19:47:15.632Z,81.67
2022-09-30T19:50:23.058Z,81.36
2022-09-30T19:53:31.037Z,81.15
2022-09-30T19:56:39.089Z,80.81
2022-09-30T19:59:46.857Z,80.91
2022-09-30T20:02:54.780Z,80.74
2022-09-30T20:06:02.207Z,81.15
2022-09-30T20:09:11.223Z,81.77
2022-09-30T20:12:19.504Z,82.28
2022-09-30T20:15:27.221Z,82.73
2022-09-30T20:18:35.455Z,82.93
2022-09-30T20:21:43.743Z,83.04
2022-09-30T20:24:51.326Z,84.10
2022-09-30T20:27:59.495Z,84.00
2022-09-30T20:31:07.027Z,84.61
2022-09-30T20:34:15.298Z,84.61
2022-09-30T20:37:23.418Z,84.82
2022-09-30T20:40:31.099Z,84.86
2022-09-30T20:43:38.888Z,85.68
2022-09-30T20:46:46.980Z,86.13
2022-09-30T20:49:55.046Z,86.44
2022-09-30T20:53:02.800Z,86.75
2022-09-30T20:56:10.514Z,87.16
2022-09-30T20:59:18.448Z,87.10
2022-09-30T21:02:26.142Z,87.51
2022-09-30T21:05:33.764Z,88.02
2022-09-30T21:08:41.894Z,88.02
2022-09-30T21:11:49.684Z,88.37
2022-09-30T21:14:57.455Z,88.68
2022-09-30T21:18:05.561Z,88.78
2022-09-30T21:21:12.926Z,88.98
2022-09-30T21:24:20.632Z,88.98
2022-09-30T21:27:28.666Z,88.98
2022-09-30T21:30:35.905Z,89.23
2022-09-30T21:33:44.000Z,89.44
2022-09-30T21:36:52.189Z,89.44
2022-09-30T21:39:59.600Z,90.51
2022-09-30T21:43:07.301Z,90.61
2022-09-30T21:46:15.327Z,90.75
2022-09-30T21:49:22.990Z,91.17
2022-09-30T21:52:32.961Z,91.38
2022-09-30T21:55:40.819Z,91.17
2022-09-30T21:58:48.604Z,91.93
2022-09-30T22:01:56.981Z,92.76
2022-09-30T22:05:04.424Z,93.37
2022-09-30T22:08:12.194Z,93.48
2022-09-30T22:11:20.416Z,93.79
2022-09-30T22:14:28.173Z,93.74
2022-09-30T22:17:35.826Z,93.43
2022-09-30T22:20:44.458Z,93.02
2022-09-30T22:23:52.607Z,92.71
2022-09-30T22:27:03.095Z,92.40
2022-09-30T22:30:10.488Z,91.85
2022-09-30T22:33:18.748Z,91.44
2022-09-30T22:36:26.149Z,90.92
2022-09-30T22:39:33.720Z,90.92
2022-09-30T22:42:41.554Z,90.72
2022-09-30T22:45:48.930Z,90.51
2022-09-30T22:48:57.148Z,90.41
2022-09-30T22:52:05.531Z,90.20
2022-09-30T22:55:12.834Z,90.61
2022-09-30T22:58:20.874Z,90.30
2022-09-30T23:01:28.545Z,89.54
2022-09-30T23:04:36.394Z,89.40
2022-09-30T23:07:44.474Z,88.68
2022-09-30T23:10:52.385Z,88.23
2022-09-30T23:14:00.094Z,87.71
2022-09-30T23:17:08.079Z,87.40
2022-09-30T23:20:15.917Z,87.61
2022-09-30T23:23:23.588Z,87.55
2022-09-30T23:26:31.851Z,88.17
2022-09-30T23:29:39.619Z,88.47
2022-09-30T23:32:47.377Z,88.47
2022-09-30T23:35:55.028Z,88.17
2022-09-30T23:39:03.165Z,88.17
2022-09-30T23:42:10.802Z,88.27
2022-09-30T23:45:18.432Z,88.37
2022-09-30T23:48:26.053Z,87.82
2022-09-30T23:51:34.291Z,87.92
2022-09-30T23:54:42.205Z,88.06
2022-09-30T23:57:49.914Z,87.96
